El Granada, CA (94018)

9:44 PM PDT on July 01, 2015 (GMT -0700)
El Granada | | Change Station
CLOSE
Current Station
Personal Weather Station
Location: El Granada, CA
Elevation: 112 ft
Nearby Weather Stations

Elev 112 ft 37.50 °N, 122.47 °W | Updated 51 seconds ago

Overcast
Overcast
60.3 °F
Feels Like 60.3 °F
N
2.0
Wind Variable Wind from South
Gusts 2.0 mph

Today
High -- | Low -- °F
--% Chance of Precip.
Yesterday
High -- | Low -- °F
Precip. -- in
5:52 AM 8:34 PM
Full, 100% visible
Pressure 29.94 in
Visibility 6.0 miles
Clouds Overcast 400 ft
Dew Point 59 °F
Humidity 96%
Rainfall 0.00 in
Snow Depth Not available.
UV 0 out of 12
Pollen 5.50 out of 12
Air Quality Not available.
Flu Activity Not available.
METAR KHAF 020435Z AUTO 17004KT 6SM BR OVC004 14/14 A2994 RMK AO2

More Conditions Fewer Conditions

Pressure 29.94 in
Visibility 6.0 miles
Clouds Overcast 400 ft
Dew Point 59 °F
Humidity 96%
Rainfall 0.00 in
Snow Depth Not available.
UV 0 out of 12
Pollen 5.50 out of 12
Air Quality Not available.
Flu Activity Not available.
METAR KHAF 020435Z AUTO 17004KT 6SM BR OVC004 14/14 A2994 RMK AO2

More Conditions Fewer Conditions

10-Day Weather Forecast

×

Almanac

Astronomy

Jul. 01, 2015 Rise Set
Actual Time
Civil Twilight
Nautical Twilight
Astronomical Twilight
Moon
Length of Visible Light
Length of Day
Tomorrow will be .
, % of the Moon is Illuminated

Today's Extremes

State Highs State Lows

Community

WunderPhotos

Upload Photos

1,834,421 photos uploaded!

WunderBlogs® & News

Nearby

Air Quality

  Air Quality AQ Index Pollutant
Not available.

Snow Depth

Station Depth Elevation

Earthquake Activity

City Distance Mag. Time & Date
Minimum magnitude displayed is 2.5.

Coastal Water Temperatures

Place Temperature

Stations

Nearby Weather Stations

Station Location Temp. Windchill Dew Point Humidity Wind Precip. Elev Updated Type